createdAt,value
2022-10-13T00:00:25.707Z,6.87
2022-10-13T00:02:52.246Z,7.22
2022-10-13T00:05:18.790Z,6.70
2022-10-13T00:07:45.423Z,6.53
2022-10-13T00:10:13.330Z,6.57
2022-10-13T00:12:40.032Z,6.30
2022-10-13T00:15:08.517Z,6.90
2022-10-13T00:17:35.473Z,6.88
2022-10-13T00:20:01.986Z,6.38
2022-10-13T00:22:28.555Z,6.57
2022-10-13T00:24:55.064Z,7.10
2022-10-13T00:27:23.169Z,6.43
2022-10-13T00:29:49.806Z,6.90
2022-10-13T00:32:16.724Z,7.18
2022-10-13T00:34:43.449Z,7.35
2022-10-13T00:37:09.991Z,6.80
2022-10-13T00:39:37.243Z,7.40
2022-10-13T00:42:04.722Z,7.13
2022-10-13T00:45:07.898Z,6.60
2022-10-13T00:47:40.516Z,5.93
2022-10-13T00:50:10.600Z,6.75
2022-10-13T00:52:39.118Z,6.90
2022-10-13T00:55:07.912Z,6.53
2022-10-13T00:57:36.192Z,7.13
2022-10-13T01:00:04.183Z,7.05
2022-10-13T01:02:34.917Z,7.50
2022-10-13T01:05:04.164Z,6.77
2022-10-13T01:07:31.407Z,6.87
2022-10-13T01:09:58.863Z,8.10
2022-10-13T01:12:38.143Z,7.90
2022-10-13T01:15:11.365Z,7.75
2022-10-13T01:17:48.551Z,7.57
2022-10-13T01:20:45.081Z,7.50
2022-10-13T01:23:30.425Z,7.13
2022-10-13T01:26:24.399Z,7.07
2022-10-13T01:29:16.300Z,7.60
2022-10-13T01:31:51.574Z,7.18
2022-10-13T01:34:23.222Z,7.03
2022-10-13T01:36:58.431Z,7.15
2022-10-13T01:39:31.396Z,6.95
2022-10-13T01:42:04.188Z,7.35
2022-10-13T01:44:36.755Z,8.23
2022-10-13T01:47:07.364Z,8.03
2022-10-13T01:49:36.043Z,8.63
2022-10-13T01:52:07.255Z,8.05
2022-10-13T01:54:33.910Z,8.75
2022-10-13T01:57:00.440Z,7.82
2022-10-13T01:59:29.565Z,8.38
2022-10-13T02:02:09.517Z,8.00
2022-10-13T02:04:45.622Z,8.23
2022-10-13T02:07:19.757Z,7.90
2022-10-13T02:09:55.056Z,7.50
2022-10-13T02:12:27.452Z,8.07
2022-10-13T02:14:55.516Z,9.10
2022-10-13T02:17:23.907Z,8.15
2022-10-13T02:19:50.450Z,8.13
2022-10-13T02:22:18.303Z,8.70
2022-10-13T02:24:45.064Z,8.70
2022-10-13T02:27:11.963Z,8.03
2022-10-13T02:29:50.087Z,7.82
2022-10-13T02:32:16.892Z,8.18
2022-10-13T02:34:45.118Z,7.82
2022-10-13T02:37:11.651Z,8.02
2022-10-13T02:39:38.215Z,7.67
2022-10-13T02:42:05.078Z,7.65
2022-10-13T02:44:31.680Z,7.20
2022-10-13T02:46:58.697Z,6.93
2022-10-13T02:49:25.266Z,7.90
2022-10-13T02:51:53.340Z,7.67
2022-10-13T02:54:20.225Z,6.90
2022-10-13T02:56:46.770Z,7.93
2022-10-13T02:59:13.388Z,8.05
2022-10-13T03:01:39.892Z,8.48
2022-10-13T03:04:06.670Z,7.53
2022-10-13T03:06:33.582Z,8.43
2022-10-13T03:09:02.544Z,9.23
2022-10-13T03:11:29.076Z,8.32
2022-10-13T03:13:55.621Z,8.68
2022-10-13T03:16:22.434Z,8.10
2022-10-13T03:18:49.026Z,8.27
2022-10-13T03:21:15.583Z,8.82
2022-10-13T03:23:42.094Z,7.63
2022-10-13T03:26:10.131Z,9.48
2022-10-13T03:28:36.798Z,8.10
2022-10-13T03:31:04.812Z,8.20
2022-10-13T03:33:31.488Z,8.35
2022-10-13T03:35:59.532Z,8.40
2022-10-13T03:38:26.295Z,8.60
2022-10-13T03:40:52.834Z,8.73
2022-10-13T03:43:20.699Z,8.85
2022-10-13T03:45:54.845Z,8.35
2022-10-13T03:48:21.353Z,9.27
2022-10-13T03:50:47.892Z,8.75
2022-10-13T03:53:14.524Z,8.03
2022-10-13T03:55:41.026Z,8.50
2022-10-13T03:58:07.882Z,9.13
2022-10-13T04:00:36.582Z,8.90
2022-10-13T04:03:03.088Z,8.73
2022-10-13T04:05:29.616Z,8.90
2022-10-13T04:07:56.120Z,9.30
2022-10-13T04:10:22.753Z,9.35
2022-10-13T04:12:49.285Z,9.70
2022-10-13T04:15:15.997Z,10.63
2022-10-13T04:17:43.880Z,10.23
2022-10-13T04:20:10.950Z,10.32
2022-10-13T04:22:37.509Z,9.77
2022-10-13T04:25:05.096Z,10.48
2022-10-13T04:27:31.624Z,10.48
2022-10-13T04:29:58.515Z,10.13
2022-10-13T04:32:25.036Z,9.93
2022-10-13T04:34:52.930Z,10.00
2022-10-13T04:37:19.426Z,9.38
2022-10-13T04:39:46.089Z,9.52
2022-10-13T04:42:12.588Z,9.50
2022-10-13T04:44:39.110Z,9.27
2022-10-13T04:47:05.624Z,8.98
2022-10-13T04:49:32.138Z,9.25
2022-10-13T04:52:00.047Z,9.23
2022-10-13T04:54:26.720Z,10.30
2022-10-13T04:56:53.280Z,10.43
2022-10-13T04:59:19.944Z,10.05
2022-10-13T05:01:46.453Z,10.88
2022-10-13T05:04:13.322Z,11.32
2022-10-13T05:07:05.216Z,10.93
2022-10-13T05:09:30.040Z,12.90
2022-10-13T05:11:56.571Z,14.05
2022-10-13T05:14:23.481Z,11.85
2022-10-13T05:16:50.069Z,11.57
2022-10-13T05:19:16.592Z,11.45
2022-10-13T05:21:43.212Z,10.77
2022-10-13T05:24:09.716Z,12.35
2022-10-13T05:26:37.658Z,13.43
2022-10-13T05:29:04.300Z,11.68
2022-10-13T05:31:32.360Z,13.50
2022-10-13T05:33:59.426Z,15.17
2022-10-13T05:36:27.469Z,15.00
2022-10-13T05:38:56.371Z,13.32
2022-10-13T05:41:24.127Z,13.60
2022-10-13T05:43:54.844Z,14.45
2022-10-13T05:46:21.358Z,14.40
2022-10-13T05:48:47.863Z,14.40
2022-10-13T05:51:17.223Z,13.80
2022-10-13T05:53:51.110Z,13.35
2022-10-13T05:56:25.950Z,12.15
2022-10-13T05:58:58.374Z,12.15
2022-10-13T06:01:28.068Z,12.47
2022-10-13T06:03:59.059Z,12.30
2022-10-13T06:06:29.131Z,13.98
2022-10-13T06:08:58.401Z,11.85
2022-10-13T06:11:24.938Z,12.15
2022-10-13T06:13:51.460Z,12.70
2022-10-13T06:16:19.309Z,12.03
2022-10-13T06:18:45.941Z,13.15
2022-10-13T06:21:12.612Z,12.20
2022-10-13T06:23:39.192Z,13.07
2022-10-13T06:26:07.238Z,11.85
2022-10-13T06:28:33.809Z,12.93
2022-10-13T06:31:00.448Z,11.52
2022-10-13T06:33:28.326Z,12.63
2022-10-13T06:35:54.827Z,11.10
2022-10-13T06:38:21.370Z,11.77
2022-10-13T06:40:48.074Z,12.93
2022-10-13T06:43:14.715Z,13.02
2022-10-13T06:45:41.281Z,13.43
2022-10-13T06:48:07.948Z,11.82
2022-10-13T06:50:40.687Z,12.95
2022-10-13T06:53:09.278Z,12.70
2022-10-13T06:55:35.898Z,13.10
2022-10-13T06:58:02.454Z,14.50
2022-10-13T07:00:29.082Z,15.77
2022-10-13T07:02:55.602Z,14.77
2022-10-13T07:05:22.254Z,15.10
2022-10-13T07:07:51.785Z,15.38
2022-10-13T07:10:18.527Z,15.45
2022-10-13T07:12:45.163Z,15.23
2022-10-13T07:15:11.719Z,14.40
2022-10-13T07:17:38.260Z,14.63
2022-10-13T07:20:07.381Z,14.13
2022-10-13T07:22:34.242Z,14.30
2022-10-13T07:25:02.117Z,14.10
2022-10-13T07:27:28.792Z,13.93
2022-10-13T07:29:55.482Z,14.17
2022-10-13T07:32:22.002Z,12.50
2022-10-13T07:34:52.169Z,17.05
2022-10-13T07:37:19.026Z,25.42
2022-10-13T07:39:45.712Z,15.70
2022-10-13T07:42:13.603Z,14.00
2022-10-13T07:44:40.245Z,13.55
2022-10-13T07:47:06.746Z,13.05
2022-10-13T07:49:33.290Z,11.27
2022-10-13T07:52:00.191Z,12.82
2022-10-13T07:54:27.817Z,12.20
2022-10-13T07:56:56.022Z,11.93
2022-10-13T07:59:24.267Z,12.45
2022-10-13T08:01:51.400Z,11.75
2022-10-13T08:04:18.210Z,12.02
2022-10-13T08:06:44.906Z,12.20
2022-10-13T08:09:11.553Z,12.10
2022-10-13T08:11:38.647Z,12.60
2022-10-13T08:14:05.199Z,14.07
2022-10-13T08:16:33.181Z,12.93
2022-10-13T08:18:59.723Z,12.70
2022-10-13T08:21:53.389Z,11.73
2022-10-13T08:24:16.424Z,12.60
2022-10-13T08:26:44.324Z,13.15
2022-10-13T08:29:27.021Z,13.05
2022-10-13T08:31:55.769Z,13.33
2022-10-13T08:34:23.327Z,12.73
2022-10-13T08:36:49.944Z,13.80
2022-10-13T08:39:16.437Z,13.30
2022-10-13T08:41:44.105Z,13.10
2022-10-13T08:47:14.857Z,13.02
2022-10-13T08:49:43.097Z,12.32
2022-10-13T08:52:16.418Z,12.98
2022-10-13T08:54:43.130Z,13.57
2022-10-13T08:57:10.805Z,12.70
2022-10-13T08:59:37.377Z,11.83
2022-10-13T09:02:11.744Z,12.63
2022-10-13T09:04:41.266Z,12.32
2022-10-13T09:07:14.377Z,13.40
2022-10-13T09:09:41.120Z,15.23
2022-10-13T09:12:10.057Z,12.07
2022-10-13T09:14:39.855Z,12.05
2022-10-13T09:17:17.274Z,11.13
2022-10-13T09:19:44.962Z,10.95
2022-10-13T09:22:21.810Z,11.60
2022-10-13T09:25:04.396Z,9.60
2022-10-13T09:27:42.408Z,10.43
2022-10-13T09:30:25.608Z,11.93
2022-10-13T09:33:00.920Z,14.35
2022-10-13T09:35:27.434Z,13.20
2022-10-13T09:38:03.005Z,13.33
2022-10-13T09:40:29.701Z,12.75
2022-10-13T09:42:57.013Z,10.73
2022-10-13T09:45:25.408Z,10.95
2022-10-13T09:47:55.604Z,11.10
2022-10-13T09:50:25.036Z,10.97
2022-10-13T09:52:52.143Z,11.20
2022-10-13T09:55:32.327Z,11.90
2022-10-13T09:58:05.706Z,12.02
2022-10-13T10:00:32.983Z,12.82
2022-10-13T10:03:05.463Z,12.07
2022-10-13T10:05:41.977Z,11.70
2022-10-13T10:08:15.700Z,11.45
2022-10-13T10:10:42.506Z,12.18
2022-10-13T10:13:11.368Z,10.15
2022-10-13T10:15:47.605Z,9.90
2022-10-13T10:18:21.089Z,10.98
2022-10-13T10:20:59.833Z,10.32
2022-10-13T10:23:37.862Z,10.85
2022-10-13T10:26:09.605Z,10.13
2022-10-13T10:29:04.856Z,10.27
2022-10-13T10:31:44.129Z,10.27
2022-10-13T10:34:30.854Z,10.32
2022-10-13T10:37:10.934Z,9.77
2022-10-13T10:39:46.489Z,9.90
2022-10-13T10:42:37.755Z,9.90
2022-10-13T10:45:16.054Z,9.35
2022-10-13T10:47:45.915Z,9.55
2022-10-13T10:50:17.394Z,9.45
2022-10-13T10:52:53.738Z,8.60
2022-10-13T10:55:27.264Z,9.37
2022-10-13T10:58:03.712Z,9.43
2022-10-13T11:00:39.076Z,10.20
2022-10-13T11:03:13.364Z,9.35
2022-10-13T11:06:01.780Z,9.25
2022-10-13T11:08:30.632Z,8.60
2022-10-13T11:11:34.823Z,8.77
2022-10-13T11:14:24.904Z,9.40
2022-10-13T11:17:19.669Z,8.20
2022-10-13T11:19:47.731Z,8.32
2022-10-13T11:22:18.292Z,7.90
2022-10-13T11:24:48.739Z,12.35
2022-10-13T11:27:38.523Z,8.65
2022-10-13T11:30:26.612Z,14.85
2022-10-13T11:32:53.258Z,8.73
2022-10-13T11:35:23.026Z,7.67
2022-10-13T11:38:08.420Z,8.37
2022-10-13T11:40:44.797Z,7.53
2022-10-13T11:43:32.053Z,7.85
2022-10-13T11:46:24.314Z,8.45
2022-10-13T11:49:05.204Z,7.53
2022-10-13T11:51:48.543Z,8.70
2022-10-13T11:54:25.494Z,8.65
2022-10-13T11:56:53.967Z,8.07
2022-10-13T11:59:23.945Z,8.30
2022-10-13T12:01:53.941Z,8.45
2022-10-13T12:04:22.857Z,8.73
2022-10-13T12:06:55.667Z,7.82
2022-10-13T12:09:24.207Z,7.97
2022-10-13T12:11:57.291Z,8.15
2022-10-13T12:14:29.595Z,7.72
2022-10-13T12:16:58.172Z,8.07
2022-10-13T12:19:27.202Z,7.93
2022-10-13T12:21:55.756Z,8.07
2022-10-13T12:24:25.064Z,7.80
2022-10-13T12:26:51.893Z,8.45
2022-10-13T12:29:21.245Z,8.33
2022-10-13T12:31:50.705Z,7.57
2022-10-13T12:34:20.679Z,8.13
2022-10-13T12:36:54.398Z,7.70
2022-10-13T12:39:21.415Z,7.85
2022-10-13T12:41:49.591Z,6.83
2022-10-13T12:44:19.949Z,7.70
2022-10-13T12:46:48.783Z,7.90
2022-10-13T12:49:17.129Z,7.18
2022-10-13T12:51:46.958Z,7.93
2022-10-13T12:54:19.761Z,8.53
2022-10-13T12:56:46.956Z,8.15
2022-10-13T12:59:17.760Z,7.50
2022-10-13T13:01:45.586Z,7.53
2022-10-13T13:04:28.109Z,7.60
2022-10-13T13:06:56.713Z,7.50
2022-10-13T13:09:28.276Z,7.95
2022-10-13T13:12:21.261Z,7.65
2022-10-13T13:14:50.612Z,7.97
2022-10-13T13:17:57.404Z,8.10
2022-10-13T13:20:25.686Z,8.00
2022-10-13T13:22:52.243Z,7.97
2022-10-13T13:25:18.899Z,7.13
2022-10-13T13:27:45.406Z,7.70
2022-10-13T13:30:15.408Z,7.82
2022-10-13T13:32:41.930Z,6.63
2022-10-13T13:35:09.598Z,6.90
2022-10-13T13:37:38.946Z,6.95
2022-10-13T13:40:07.254Z,6.85
2022-10-13T13:42:33.827Z,7.45
2022-10-13T13:45:00.307Z,7.03
2022-10-13T13:47:28.697Z,7.05
2022-10-13T13:49:56.684Z,7.93
2022-10-13T13:52:24.221Z,7.50
2022-10-13T13:54:51.451Z,7.47
2022-10-13T13:57:19.078Z,8.07
2022-10-13T13:59:46.004Z,7.80
2022-10-13T14:02:14.499Z,7.72
2022-10-13T14:04:42.970Z,8.00
2022-10-13T14:07:09.552Z,9.18
2022-10-13T14:09:36.213Z,8.33
2022-10-13T14:12:02.911Z,8.45
2022-10-13T14:14:30.453Z,9.18
2022-10-13T14:16:56.960Z,8.35
2022-10-13T14:19:23.568Z,8.90
2022-10-13T14:21:51.458Z,8.73
2022-10-13T14:24:18.234Z,10.55
2022-10-13T14:26:44.773Z,9.68
2022-10-13T14:29:11.391Z,10.32
2022-10-13T14:31:37.992Z,8.90
2022-10-13T14:34:04.487Z,9.77
2022-10-13T14:36:31.172Z,9.45
2022-10-13T14:38:59.171Z,10.55
2022-10-13T14:41:25.839Z,9.60
2022-10-13T14:43:52.868Z,9.88
2022-10-13T14:46:19.363Z,9.57
2022-10-13T14:48:45.899Z,9.98
2022-10-13T14:51:12.764Z,9.88
2022-10-13T14:53:41.038Z,10.93
2022-10-13T14:56:17.835Z,11.82
2022-10-13T14:58:44.645Z,10.70
2022-10-13T15:01:11.173Z,12.80
2022-10-13T15:03:37.693Z,11.88
2022-10-13T15:06:04.491Z,10.45
2022-10-13T15:08:31.036Z,10.70
2022-10-13T15:11:00.772Z,11.57
2022-10-13T15:13:29.184Z,13.07
2022-10-13T15:15:57.796Z,11.65
2022-10-13T15:18:28.972Z,10.80
2022-10-13T15:20:56.077Z,10.77
2022-10-13T15:23:23.071Z,10.13
2022-10-13T15:25:50.796Z,10.50
2022-10-13T15:28:17.419Z,10.70
2022-10-13T15:30:45.602Z,10.88
2022-10-13T15:33:12.250Z,10.52
2022-10-13T15:35:38.897Z,10.50
2022-10-13T15:38:05.475Z,10.10
2022-10-13T15:40:32.217Z,11.18
2022-10-13T15:42:58.769Z,10.70
2022-10-13T15:45:25.701Z,11.30
2022-10-13T15:47:53.623Z,10.47
2022-10-13T15:50:20.131Z,10.18
2022-10-13T15:52:46.712Z,10.90
2022-10-13T15:55:13.256Z,10.93
2022-10-13T15:57:39.774Z,10.80
2022-10-13T16:00:08.260Z,12.53
2022-10-13T16:02:34.815Z,13.85
2022-10-13T16:05:02.731Z,13.50
2022-10-13T16:07:29.262Z,12.73
2022-10-13T16:09:55.888Z,11.68
2022-10-13T16:12:22.597Z,11.03
2022-10-13T16:14:49.380Z,11.20
2022-10-13T16:17:15.870Z,10.90
2022-10-13T16:19:42.387Z,11.40
2022-10-13T16:22:10.275Z,10.90
2022-10-13T16:24:37.063Z,10.80
2022-10-13T16:27:03.701Z,10.60
2022-10-13T16:29:30.417Z,9.88
2022-10-13T16:31:57.061Z,9.80
2022-10-13T16:34:23.635Z,10.50
2022-10-13T16:36:50.171Z,10.30
2022-10-13T16:39:18.199Z,10.80
2022-10-13T16:41:44.760Z,10.30
2022-10-13T16:44:11.363Z,11.13
2022-10-13T16:46:37.910Z,11.10
2022-10-13T16:49:04.452Z,10.93
2022-10-13T16:51:31.075Z,11.80
2022-10-13T16:54:02.943Z,11.80
2022-10-13T16:56:32.709Z,11.80
2022-10-13T16:59:01.330Z,12.32
2022-10-13T17:01:28.550Z,12.13
2022-10-13T17:03:55.331Z,12.23
2022-10-13T17:06:24.055Z,11.02
2022-10-13T17:08:50.626Z,11.02
2022-10-13T17:11:19.383Z,12.82
2022-10-13T17:13:47.767Z,12.33
2022-10-13T17:16:14.566Z,12.07
2022-10-13T17:18:41.201Z,11.43
2022-10-13T17:21:09.960Z,11.63
2022-10-13T17:23:37.389Z,12.13
2022-10-13T17:26:06.336Z,14.57
2022-10-13T17:28:33.076Z,15.77
2022-10-13T17:31:03.056Z,16.58
2022-10-13T17:33:31.956Z,15.95
2022-10-13T17:36:00.141Z,16.63
2022-10-13T17:38:26.684Z,15.70
2022-10-13T17:40:58.800Z,16.77
2022-10-13T17:43:26.363Z,15.90
2022-10-13T17:45:52.957Z,16.33
2022-10-13T17:48:23.088Z,16.35
2022-10-13T17:50:49.822Z,16.30
2022-10-13T17:53:16.332Z,14.32
2022-10-13T17:55:43.167Z,13.65
2022-10-13T17:58:09.717Z,13.00
2022-10-13T18:01:00.649Z,12.10
2022-10-13T18:03:25.142Z,12.87
2022-10-13T18:05:51.944Z,12.38
2022-10-13T18:08:18.657Z,12.68
2022-10-13T18:11:07.073Z,14.55
2022-10-13T18:13:32.016Z,14.43
2022-10-13T18:16:02.793Z,15.27
2022-10-13T18:18:30.907Z,21.08
2022-10-13T18:20:57.449Z,22.55
2022-10-13T18:23:24.094Z,21.35
2022-10-13T18:25:50.659Z,21.20
2022-10-13T18:28:17.250Z,20.07
2022-10-13T18:30:43.905Z,19.35
2022-10-13T18:33:10.437Z,19.00
2022-10-13T18:35:38.441Z,17.35
2022-10-13T18:38:04.933Z,15.25
2022-10-13T18:40:31.558Z,17.10
2022-10-13T18:42:58.065Z,17.67
2022-10-13T18:45:24.574Z,17.83
2022-10-13T18:47:51.175Z,19.17
2022-10-13T18:50:17.772Z,17.60
2022-10-13T18:52:46.262Z,16.20
2022-10-13T18:55:12.770Z,16.55
2022-10-13T18:57:39.307Z,17.50
2022-10-13T19:00:10.137Z,17.00
2022-10-13T19:02:36.637Z,16.95
2022-10-13T19:05:03.242Z,16.37
2022-10-13T19:07:29.767Z,14.98
2022-10-13T19:09:57.616Z,12.98
2022-10-13T19:12:24.184Z,12.48
2022-10-13T19:14:50.718Z,15.88
2022-10-13T19:17:17.227Z,15.03
2022-10-13T19:19:43.781Z,17.88
2022-10-13T19:22:10.406Z,18.27
2022-10-13T19:24:36.918Z,16.30
2022-10-13T19:27:04.874Z,14.95
2022-10-13T19:29:31.426Z,16.23
2022-10-13T19:31:57.991Z,15.70
2022-10-13T19:34:24.602Z,17.67
2022-10-13T19:36:51.145Z,17.35
2022-10-13T19:39:20.617Z,15.98
2022-10-13T19:41:48.297Z,16.57
2022-10-13T19:44:18.189Z,15.80
2022-10-13T19:46:46.630Z,15.48
2022-10-13T19:49:16.018Z,14.15
2022-10-13T19:51:42.560Z,15.43
2022-10-13T19:54:10.153Z,14.47
2022-10-13T19:56:36.878Z,15.05
2022-10-13T19:59:03.919Z,14.68
2022-10-13T20:01:32.021Z,14.15
2022-10-13T20:03:58.700Z,13.52
2022-10-13T20:06:25.224Z,14.50
2022-10-13T20:08:51.737Z,13.88
2022-10-13T20:11:23.771Z,14.93
2022-10-13T20:13:52.258Z,16.48
2022-10-13T20:16:22.202Z,16.73
2022-10-13T20:18:53.200Z,14.87
2022-10-13T20:21:19.957Z,21.45
2022-10-13T20:23:46.620Z,17.50
2022-10-13T20:26:13.509Z,36.63
2022-10-13T20:28:43.004Z,28.25
2022-10-13T20:31:10.273Z,20.80
2022-10-13T20:33:36.797Z,18.25
2022-10-13T20:36:06.976Z,17.45
2022-10-13T20:38:35.013Z,27.85
2022-10-13T20:41:05.795Z,18.58
2022-10-13T20:43:32.584Z,19.00
2022-10-13T20:46:00.506Z,16.05
2022-10-13T20:48:36.757Z,17.77
2022-10-13T20:51:19.291Z,16.77
2022-10-13T20:53:46.834Z,16.73
2022-10-13T20:56:15.080Z,16.10
2022-10-13T20:58:42.087Z,15.95
2022-10-13T21:01:08.953Z,16.15
2022-10-13T21:03:35.688Z,15.63
2022-10-13T21:06:03.961Z,16.38
2022-10-13T21:08:31.906Z,16.23
2022-10-13T21:11:03.175Z,16.83
2022-10-13T21:13:29.773Z,16.30
2022-10-13T21:15:56.302Z,17.05
2022-10-13T21:18:22.855Z,17.55
2022-10-13T21:20:49.380Z,16.97
2022-10-13T21:23:15.930Z,16.02
2022-10-13T21:25:43.794Z,17.85
2022-10-13T21:28:10.322Z,17.33
2022-10-13T21:30:36.837Z,17.25
2022-10-13T21:33:03.417Z,18.37
2022-10-13T21:35:29.924Z,17.38
2022-10-13T21:37:56.449Z,18.02
2022-10-13T21:40:23.101Z,17.02
2022-10-13T21:42:50.980Z,17.88
2022-10-13T21:45:17.676Z,17.80
2022-10-13T21:47:44.334Z,17.63
2022-10-13T21:50:10.976Z,17.00
2022-10-13T21:52:37.563Z,18.08
2022-10-13T21:55:05.083Z,17.75
2022-10-13T21:57:31.607Z,16.83
2022-10-13T21:59:59.568Z,16.42
2022-10-13T22:02:26.099Z,17.25
2022-10-13T22:04:52.635Z,16.30
2022-10-13T22:07:19.408Z,17.15
2022-10-13T22:09:46.255Z,15.87
2022-10-13T22:12:12.743Z,16.27
2022-10-13T22:14:39.261Z,17.52
2022-10-13T22:17:07.127Z,15.20
2022-10-13T22:19:33.743Z,16.67
2022-10-13T22:22:00.263Z,15.43
2022-10-13T22:24:26.793Z,15.60
2022-10-13T22:26:53.309Z,16.65
2022-10-13T22:29:21.587Z,15.55
2022-10-13T22:31:48.912Z,16.08
2022-10-13T22:34:17.480Z,15.80
2022-10-13T22:36:45.253Z,15.10
2022-10-13T22:39:12.809Z,13.90
2022-10-13T22:41:39.322Z,15.48
2022-10-13T22:44:05.869Z,15.35
2022-10-13T22:46:34.407Z,15.75
2022-10-13T22:49:01.445Z,15.15
2022-10-13T22:51:31.363Z,14.77
2022-10-13T22:53:58.515Z,15.93
2022-10-13T22:56:27.114Z,16.15
2022-10-13T22:58:56.434Z,15.63
2022-10-13T23:01:24.127Z,16.02
2022-10-13T23:03:52.710Z,15.57
2022-10-13T23:06:21.889Z,15.45
2022-10-13T23:08:49.924Z,16.83
2022-10-13T23:11:17.147Z,15.80
2022-10-13T23:13:43.910Z,16.02
2022-10-13T23:16:12.218Z,15.13
2022-10-13T23:18:39.133Z,15.27
2022-10-13T23:21:05.928Z,16.08
2022-10-13T23:23:32.571Z,13.47
2022-10-13T23:26:03.479Z,15.35
2022-10-13T23:28:30.766Z,13.98
2022-10-13T23:30:59.531Z,15.38
2022-10-13T23:33:26.053Z,15.43
2022-10-13T23:35:55.801Z,14.10
2022-10-13T23:38:22.787Z,14.68
2022-10-13T23:40:49.638Z,15.30
2022-10-13T23:43:17.729Z,14.88
2022-10-13T23:45:44.523Z,14.52
2022-10-13T23:48:11.161Z,15.30
2022-10-13T23:50:37.696Z,15.60
2022-10-13T23:53:04.432Z,15.10
2022-10-13T23:55:31.051Z,16.20
2022-10-13T23:57:57.537Z,14.85
